createdAt,value
2022-09-09T00:00:31.186Z,1.53
2022-09-09T00:04:36.505Z,1.43
2022-09-09T00:09:02.764Z,1.37
2022-09-09T00:13:25.117Z,1.30
2022-09-09T00:17:37.512Z,1.30
2022-09-09T00:21:45.927Z,1.77
2022-09-09T00:25:56.386Z,1.67
2022-09-09T00:30:14.954Z,1.13
2022-09-09T00:34:23.725Z,1.87
2022-09-09T00:38:33.674Z,1.33
2022-09-09T00:42:44.054Z,1.97
2022-09-09T00:47:02.117Z,1.70
2022-09-09T00:51:15.825Z,1.50
2022-09-09T00:55:27.994Z,1.50
2022-09-09T00:59:38.953Z,1.43
2022-09-09T01:03:50.012Z,1.57
2022-09-09T01:07:58.109Z,1.80
2022-09-09T01:12:11.278Z,1.67
2022-09-09T01:16:15.130Z,1.40
2022-09-09T01:20:25.145Z,1.30
2022-09-09T01:24:37.049Z,1.30
2022-09-09T01:28:42.613Z,1.80
2022-09-09T01:32:47.227Z,1.40
2022-09-09T01:36:54.281Z,1.63
2022-09-09T01:40:59.494Z,2.03
2022-09-09T01:45:04.206Z,1.27
2022-09-09T01:49:10.261Z,1.57
2022-09-09T01:53:18.016Z,1.57
2022-09-09T01:57:25.348Z,2.30
2022-09-09T02:01:45.057Z,1.67
2022-09-09T02:05:56.408Z,1.43
2022-09-09T02:10:05.616Z,1.73
2022-09-09T02:14:12.870Z,1.70
2022-09-09T02:18:24.654Z,1.40
2022-09-09T02:22:30.087Z,1.60
2022-09-09T02:26:35.295Z,1.43
2022-09-09T02:30:40.583Z,1.70
2022-09-09T02:34:50.078Z,2.03
2022-09-09T02:38:55.050Z,1.80
2022-09-09T02:42:58.313Z,1.80
2022-09-09T02:47:19.039Z,1.50
2022-09-09T02:51:29.143Z,1.67
2022-09-09T02:55:41.064Z,1.70
2022-09-09T02:59:46.238Z,1.77
2022-09-09T03:03:49.476Z,1.57
2022-09-09T03:07:54.118Z,1.67
2022-09-09T03:11:57.338Z,1.80
2022-09-09T03:16:01.005Z,1.60
2022-09-09T03:20:05.048Z,2.43
2022-09-09T03:24:10.677Z,1.70
2022-09-09T03:28:14.159Z,1.90
2022-09-09T03:32:18.593Z,1.47
2022-09-09T03:36:21.911Z,1.80
2022-09-09T03:40:27.265Z,1.60
2022-09-09T03:44:30.484Z,1.80
2022-09-09T03:48:33.832Z,2.10
2022-09-09T03:52:37.609Z,2.90
2022-09-09T03:56:42.903Z,1.80
2022-09-09T04:00:46.507Z,1.97
2022-09-09T04:04:49.772Z,2.30
2022-09-09T04:08:53.700Z,1.80
2022-09-09T04:12:58.266Z,1.77
2022-09-09T04:17:01.482Z,2.10
2022-09-09T04:21:07.196Z,2.40
2022-09-09T04:25:10.788Z,1.80
2022-09-09T04:29:15.445Z,1.77
2022-09-09T04:33:19.430Z,1.50
2022-09-09T04:37:22.707Z,2.80
2022-09-09T04:41:25.946Z,2.03
2022-09-09T04:45:31.384Z,2.57
2022-09-09T04:49:35.082Z,2.20
2022-09-09T04:53:39.125Z,1.90
2022-09-09T04:57:42.684Z,2.77
2022-09-09T05:01:49.267Z,2.17
2022-09-09T05:05:52.516Z,2.20
2022-09-09T05:09:55.776Z,1.73
2022-09-09T05:13:59.147Z,2.00
2022-09-09T05:18:04.403Z,1.70
2022-09-09T05:22:08.690Z,2.30
2022-09-09T05:26:17.510Z,2.07
2022-09-09T05:30:21.572Z,2.43
2022-09-09T05:34:26.348Z,2.50
2022-09-09T05:38:30.129Z,2.30
2022-09-09T05:42:33.906Z,2.97
2022-09-09T05:46:37.192Z,2.27
2022-09-09T05:50:41.796Z,3.00
2022-09-09T05:54:44.992Z,2.17
2022-09-09T05:58:50.286Z,2.10
2022-09-09T06:02:54.723Z,2.73
2022-09-09T06:07:00.112Z,2.73
2022-09-09T06:11:05.102Z,2.23
2022-09-09T06:15:10.130Z,1.90
2022-09-09T06:19:13.981Z,3.17
2022-09-09T06:23:18.625Z,2.23
2022-09-09T06:27:22.159Z,2.47
2022-09-09T06:31:31.359Z,2.03
2022-09-09T06:35:34.849Z,1.97
2022-09-09T06:39:39.515Z,2.10
2022-09-09T06:43:42.774Z,1.93
2022-09-09T06:47:46.150Z,2.27
2022-09-09T06:51:50.564Z,2.30
2022-09-09T06:55:55.828Z,2.20
2022-09-09T06:59:59.519Z,2.67
2022-09-09T07:04:04.952Z,2.13
2022-09-09T07:08:08.156Z,2.07
2022-09-09T07:12:14.340Z,3.00
2022-09-09T07:16:20.230Z,2.57
2022-09-09T07:20:23.538Z,3.50
2022-09-09T07:24:31.657Z,2.30
2022-09-09T07:28:36.618Z,2.67
2022-09-09T07:32:40.566Z,2.90
2022-09-09T07:36:44.227Z,3.10
2022-09-09T07:40:47.519Z,3.53
2022-09-09T07:44:55.925Z,3.00
2022-09-09T07:48:59.674Z,2.60
2022-09-09T07:53:03.584Z,3.20
2022-09-09T07:57:06.804Z,2.80
2022-09-09T08:01:13.715Z,3.13
2022-09-09T08:05:17.776Z,2.90
2022-09-09T08:09:22.115Z,3.00
2022-09-09T08:13:25.326Z,3.00
2022-09-09T08:17:29.881Z,3.30
2022-09-09T08:21:34.428Z,2.90
2022-09-09T08:25:37.697Z,2.80
2022-09-09T08:29:40.957Z,3.60
2022-09-09T08:33:47.072Z,2.70
2022-09-09T08:37:51.523Z,3.00
2022-09-09T08:42:24.565Z,2.90
2022-09-09T08:46:35.200Z,2.57
2022-09-09T08:50:42.279Z,2.77
2022-09-09T08:54:52.129Z,3.30
2022-09-09T08:58:58.183Z,3.03
2022-09-09T09:03:12.872Z,3.40
2022-09-09T09:07:32.581Z,3.27
2022-09-09T09:11:41.726Z,3.13
2022-09-09T09:15:48.795Z,3.20
2022-09-09T09:19:52.740Z,2.93
2022-09-09T09:24:00.373Z,2.97
2022-09-09T09:28:07.272Z,2.93
2022-09-09T09:32:14.752Z,2.83
2022-09-09T09:36:18.423Z,2.87
2022-09-09T09:40:24.510Z,2.30
2022-09-09T09:44:29.917Z,2.47
2022-09-09T09:48:33.651Z,2.60
2022-09-09T09:52:37.864Z,2.40
2022-09-09T09:56:43.163Z,2.50
2022-09-09T10:00:51.841Z,2.30
2022-09-09T10:05:04.385Z,2.60
2022-09-09T10:09:24.266Z,2.30
2022-09-09T10:13:37.537Z,2.50
2022-09-09T10:17:56.585Z,1.80
2022-09-09T10:22:08.664Z,1.90
2022-09-09T10:26:28.103Z,2.03
2022-09-09T10:30:45.184Z,2.20
2022-09-09T10:34:58.719Z,1.60
2022-09-09T10:39:06.249Z,1.50
2022-09-09T10:43:22.047Z,2.00
2022-09-09T10:47:41.754Z,1.50
2022-09-09T10:51:54.967Z,1.67
2022-09-09T10:56:03.833Z,1.27
2022-09-09T11:00:16.164Z,1.73
2022-09-09T11:04:25.782Z,2.10
2022-09-09T11:08:31.679Z,1.20
2022-09-09T11:12:41.321Z,1.40
2022-09-09T11:16:50.719Z,1.67
2022-09-09T11:21:00.986Z,1.70
2022-09-09T11:25:10.725Z,1.50
2022-09-09T11:29:37.815Z,1.97
2022-09-09T11:34:10.699Z,1.90
2022-09-09T11:38:27.779Z,1.90
2022-09-09T11:42:31.103Z,1.73
2022-09-09T11:46:39.159Z,2.50
2022-09-09T11:50:42.457Z,2.10
2022-09-09T11:54:52.058Z,2.30
2022-09-09T11:59:04.788Z,2.00
2022-09-09T12:03:10.146Z,1.97
2022-09-09T12:07:31.367Z,2.30
2022-09-09T12:11:36.160Z,1.93
2022-09-09T12:15:49.410Z,2.33
2022-09-09T12:20:09.595Z,1.87
2022-09-09T12:24:15.457Z,2.07
2022-09-09T12:28:21.784Z,1.40
2022-09-09T12:32:27.733Z,1.43
2022-09-09T12:36:34.744Z,1.70
2022-09-09T12:40:38.032Z,1.67
2022-09-09T12:44:53.610Z,1.50
2022-09-09T12:48:57.200Z,1.30
2022-09-09T12:53:03.501Z,1.50
2022-09-09T12:57:07.751Z,1.30
2022-09-09T13:01:24.633Z,1.10
2022-09-09T13:05:29.715Z,1.43
2022-09-09T13:09:33.878Z,1.60
2022-09-09T13:13:38.909Z,1.40
2022-09-09T13:17:43.793Z,1.57
2022-09-09T13:21:47.046Z,1.37
2022-09-09T13:25:58.213Z,1.67
2022-09-09T13:30:01.672Z,1.67
2022-09-09T13:34:15.343Z,1.37
2022-09-09T13:38:19.146Z,1.47
2022-09-09T13:42:28.359Z,1.50
2022-09-09T13:46:35.656Z,2.00
2022-09-09T13:50:40.886Z,1.20
2022-09-09T13:54:44.076Z,1.37
2022-09-09T13:58:47.271Z,1.70
2022-09-09T14:02:50.824Z,1.70
2022-09-09T14:06:57.182Z,1.43
2022-09-09T14:11:00.571Z,2.37
2022-09-09T14:15:03.850Z,3.63
2022-09-09T14:19:07.209Z,1.87
2022-09-09T14:23:14.306Z,2.03
2022-09-09T14:27:17.889Z,1.80
2022-09-09T14:31:22.077Z,1.67
2022-09-09T14:35:26.073Z,1.93
2022-09-09T14:39:30.707Z,2.83
2022-09-09T14:43:34.187Z,2.30
2022-09-09T14:47:39.164Z,3.10
2022-09-09T14:51:42.492Z,3.20
2022-09-09T14:55:47.848Z,2.90
2022-09-09T14:59:51.413Z,2.83
2022-09-09T15:03:56.849Z,3.10
2022-09-09T15:08:00.763Z,3.73
2022-09-09T15:12:06.212Z,3.53
2022-09-09T15:16:11.027Z,2.90
2022-09-09T15:20:14.294Z,3.60
2022-09-09T15:24:17.998Z,2.60
2022-09-09T15:28:23.515Z,3.10
2022-09-09T15:32:26.797Z,3.47
2022-09-09T15:36:33.094Z,2.80
2022-09-09T15:40:36.281Z,2.77
2022-09-09T15:44:43.601Z,2.40
2022-09-09T15:48:49.108Z,2.50
2022-09-09T15:52:54.597Z,2.20
2022-09-09T15:56:59.523Z,1.70
2022-09-09T16:01:06.460Z,1.93
2022-09-09T16:05:10.158Z,1.63
2022-09-09T16:09:13.530Z,1.60
2022-09-09T16:13:16.696Z,2.00
2022-09-09T16:17:21.650Z,2.30
2022-09-09T16:21:26.963Z,1.97
2022-09-09T16:25:30.105Z,1.83
2022-09-09T16:29:44.497Z,2.00
2022-09-09T16:33:51.575Z,2.07
2022-09-09T16:37:54.798Z,2.00
2022-09-09T16:41:58.273Z,1.60
2022-09-09T16:46:02.484Z,1.73
2022-09-09T16:50:08.414Z,1.93
2022-09-09T16:54:14.947Z,1.67
2022-09-09T16:58:21.256Z,1.80
2022-09-09T17:02:25.651Z,2.53
2022-09-09T17:06:33.613Z,2.27
2022-09-09T17:10:42.089Z,2.87
2022-09-09T17:14:46.750Z,2.73
2022-09-09T17:18:50.453Z,3.00
2022-09-09T17:22:55.666Z,2.33
2022-09-09T17:26:59.140Z,2.60
2022-09-09T17:31:04.270Z,2.50
2022-09-09T17:35:08.236Z,2.00
2022-09-09T17:39:12.893Z,2.50
2022-09-09T17:43:17.206Z,2.30
2022-09-09T17:47:21.199Z,3.10
2022-09-09T17:51:28.890Z,2.40
2022-09-09T17:55:39.706Z,2.70
2022-09-09T17:59:43.444Z,2.77
2022-09-09T18:03:49.182Z,2.50
2022-09-09T18:07:54.051Z,2.90
2022-09-09T18:12:04.046Z,2.87
2022-09-09T18:16:10.796Z,2.70
2022-09-09T18:20:18.748Z,2.80
2022-09-09T18:24:24.013Z,2.87
2022-09-09T18:28:29.701Z,2.47
2022-09-09T18:32:33.043Z,2.90
2022-09-09T18:36:38.393Z,3.00
2022-09-09T18:40:42.258Z,3.00
2022-09-09T18:44:47.176Z,2.60
2022-09-09T18:48:56.586Z,2.90
2022-09-09T18:52:59.901Z,2.80
2022-09-09T18:57:03.839Z,3.63
2022-09-09T19:01:13.134Z,3.67
2022-09-09T19:05:16.784Z,3.50
2022-09-09T19:09:21.178Z,3.37
2022-09-09T19:13:28.786Z,4.03
2022-09-09T19:17:33.849Z,3.60
2022-09-09T19:21:47.875Z,3.93
2022-09-09T19:25:53.641Z,3.10
2022-09-09T19:30:01.869Z,3.70
2022-09-09T19:34:18.093Z,3.70
2022-09-09T19:38:21.409Z,3.97
2022-09-09T19:42:28.033Z,3.90
2022-09-09T19:46:33.047Z,4.23
2022-09-09T19:50:44.673Z,4.00
2022-09-09T19:54:48.166Z,3.93
2022-09-09T19:58:52.622Z,3.97
2022-09-09T20:03:17.513Z,5.50
2022-09-09T20:07:21.480Z,4.57
2022-09-09T20:11:27.756Z,4.33
2022-09-09T20:15:31.022Z,4.50
2022-09-09T20:19:36.698Z,5.33
2022-09-09T20:23:58.333Z,4.20
2022-09-09T20:28:01.922Z,5.00
2022-09-09T20:32:05.983Z,5.03
2022-09-09T20:36:15.784Z,5.30
2022-09-09T20:40:20.439Z,4.57
2022-09-09T20:44:25.515Z,4.90
2022-09-09T20:48:28.656Z,5.00
2022-09-09T20:52:38.116Z,5.00
2022-09-09T20:56:45.168Z,4.80
2022-09-09T21:00:49.227Z,4.87
2022-09-09T21:04:52.413Z,4.87
2022-09-09T21:08:55.806Z,4.53
2022-09-09T21:13:01.776Z,3.87
2022-09-09T21:17:05.329Z,3.73
2022-09-09T21:21:09.128Z,4.00
2022-09-09T21:25:13.174Z,4.43
2022-09-09T21:29:17.658Z,4.33
2022-09-09T21:33:24.902Z,4.90
2022-09-09T21:37:28.355Z,3.93
2022-09-09T21:41:31.753Z,3.77
2022-09-09T21:45:37.782Z,4.70
2022-09-09T21:49:41.093Z,4.13
2022-09-09T21:53:44.940Z,4.20
2022-09-09T21:57:48.251Z,3.90
2022-09-09T22:01:53.075Z,4.47
2022-09-09T22:05:59.041Z,3.73
2022-09-09T22:10:03.388Z,4.30
2022-09-09T22:14:06.627Z,4.47
2022-09-09T22:18:11.887Z,4.37
2022-09-09T22:22:15.262Z,4.27
2022-09-09T22:26:18.517Z,4.40
2022-09-09T22:30:21.798Z,4.87
2022-09-09T22:34:28.767Z,5.33
2022-09-09T22:38:39.428Z,4.03
2022-09-09T22:42:43.105Z,4.90
2022-09-09T22:46:47.354Z,3.63
2022-09-09T22:50:52.136Z,4.57
2022-09-09T22:54:55.292Z,5.03
2022-09-09T22:58:58.751Z,4.63
2022-09-09T23:03:04.353Z,5.07
2022-09-09T23:07:09.288Z,4.80
2022-09-09T23:11:14.120Z,5.23
2022-09-09T23:15:17.562Z,5.00
2022-09-09T23:19:21.957Z,4.90
2022-09-09T23:23:29.181Z,4.50
2022-09-09T23:27:33.105Z,5.03
2022-09-09T23:31:37.993Z,5.70
2022-09-09T23:35:41.945Z,6.27
2022-09-09T23:39:47.698Z,5.17
2022-09-09T23:43:52.397Z,5.43
2022-09-09T23:47:55.981Z,5.13
2022-09-09T23:51:59.160Z,4.63
2022-09-09T23:56:05.780Z,5.37
